Time;durP1;ratioP1;P1;durP2;ratioP2;P2;SDS_P1;SDS_P2;PMS_P1;PMS_P2;Temp;Humidity;BMP_temperature;BMP_pressure;BME280_temperature;BME280_humidity;BME280_pressure;Samples;Min_cycle;Max_cycle;Signal;HPM_P1;HPM_P2
2023/11/20 00:00:45;;;;;;;14.07;1.90;;;;;;;9.98;75.93;99347.34;5018070;28;20167;-45
2023/11/20 00:03:12;;;;;;;6.18;1.42;;;;;;;10.00;75.38;99348.19;5015323;28;20049;-46
2023/11/20 00:05:39;;;;;;;7.53;1.85;;;;;;;10.00;75.83;99350.75;5017406;28;20415;-46
2023/11/20 00:08:06;;;;;;;5.60;1.00;;;;;;;9.93;75.84;99341.34;5015780;28;21127;-47
2023/11/20 00:10:34;;;;;;;6.45;1.38;;;;;;;9.89;75.96;99337.09;5016758;28;20418;-43
2023/11/20 00:13:00;;;;;;;4.40;1.90;;;;;;;9.86;75.30;99343.16;5017938;28;20053;-48
2023/11/20 00:15:27;;;;;;;4.35;0.63;;;;;;;9.85;75.54;99340.59;5019138;28;20076;-44
2023/11/20 00:17:55;;;;;;;6.85;1.63;;;;;;;9.80;75.39;99334.63;5019557;28;20076;-43
2023/11/20 00:20:22;;;;;;;7.10;0.95;;;;;;;9.77;75.33;99338.94;5016310;28;20045;-45
2023/11/20 00:22:48;;;;;;;7.15;1.50;;;;;;;9.74;75.37;99333.84;5018844;28;20053;-49
2023/11/20 00:25:15;;;;;;;5.15;1.10;;;;;;;9.70;76.00;99342.50;5018933;28;20068;-50
2023/11/20 00:27:43;;;;;;;9.07;1.08;;;;;;;9.66;75.90;99348.53;5018243;28;20061;-47
2023/11/20 00:30:10;;;;;;;8.45;1.63;;;;;;;9.65;75.57;99349.41;5018882;28;20069;-43
2023/11/20 00:32:37;;;;;;;6.97;1.08;;;;;;;9.60;75.38;99344.28;5015569;28;20604;-42
2023/11/20 00:35:04;;;;;;;4.55;1.20;;;;;;;9.58;76.31;99342.59;5019373;28;21106;-52
2023/11/20 00:37:30;;;;;;;9.02;0.68;;;;;;;9.56;76.39;99354.69;5018796;28;20049;-48
2023/11/20 00:39:57;;;;;;;9.80;1.70;;;;;;;9.56;75.69;99345.19;5018438;28;20049;-50
2023/11/20 00:42:24;;;;;;;7.32;1.35;;;;;;;9.56;76.05;99344.34;5014246;28;20514;-48
2023/11/20 00:44:51;;;;;;;6.05;1.58;;;;;;;9.53;75.72;99334.91;5021296;28;20137;-50
2023/11/20 00:47:18;;;;;;;4.45;0.85;;;;;;;9.51;75.84;99337.50;5017191;28;20597;-46
2023/11/20 00:49:44;;;;;;;6.13;1.70;;;;;;;9.48;76.19;99341.84;5019579;28;20057;-48
2023/11/20 00:52:12;;;;;;;6.55;0.75;;;;;;;9.45;76.38;99341.84;5018286;28;20038;-51
2023/11/20 00:54:39;;;;;;;6.70;1.45;;;;;;;9.46;76.34;99339.25;5020743;28;20107;-47
2023/11/20 00:57:06;;;;;;;5.88;1.50;;;;;;;9.46;76.10;99335.84;5021544;28;20045;-51
2023/11/20 00:59:32;;;;;;;6.03;1.55;;;;;;;9.49;76.65;99339.22;5015119;28;20537;-48
2023/11/20 01:01:59;;;;;;;8.50;1.55;;;;;;;9.51;76.21;99334.91;5019203;28;20041;-49
2023/11/20 01:04:26;;;;;;;4.97;1.23;;;;;;;9.53;76.19;99334.91;5017403;28;21660;-47
2023/11/20 01:06:52;;;;;;;4.72;1.15;;;;;;;9.58;76.53;99347.78;5019054;28;20162;-49
2023/11/20 01:09:19;;;;;;;4.88;1.52;;;;;;;9.63;76.51;99338.25;5018419;28;20076;-47
2023/11/20 01:11:46;;;;;;;6.55;1.30;;;;;;;9.63;76.38;99340.84;5018561;28;20050;-46
2023/11/20 01:14:13;;;;;;;8.77;2.00;;;;;;;9.66;76.72;99330.44;5016611;28;20069;-46
2023/11/20 01:16:42;;;;;;;7.60;1.58;;;;;;;9.67;76.31;99337.34;5017409;28;20053;-51
2023/11/20 01:19:09;;;;;;;15.95;1.95;;;;;;;9.67;76.19;99332.19;5021006;28;20049;-47
2023/11/20 01:21:37;;;;;;;4.05;1.13;;;;;;;9.68;76.20;99333.88;5021326;28;20562;-48
2023/11/20 01:24:05;;;;;;;10.10;1.80;;;;;;;9.68;76.40;99331.28;5016721;28;20132;-42
2023/11/20 01:26:31;;;;;;;9.95;1.58;;;;;;;9.67;76.23;99321.84;5015494;28;20511;-51
2023/11/20 01:28:58;;;;;;;8.57;1.38;;;;;;;9.63;76.54;99315.81;5018356;28;20260;-44
2023/11/20 01:31:25;;;;;;;10.05;1.50;;;;;;;9.58;76.52;99321.91;5020516;28;20577;-47
2023/11/20 01:33:52;;;;;;;7.28;1.30;;;;;;;9.52;76.92;99317.66;5018117;28;20046;-54
2023/11/20 01:36:19;;;;;;;5.90;0.77;;;;;;;9.48;76.68;99319.44;5019278;28;20507;-44
2023/11/20 01:38:45;;;;;;;9.98;1.83;;;;;;;9.41;76.59;99317.78;5017935;28;20042;-51
2023/11/20 01:41:12;;;;;;;10.68;1.70;;;;;;;9.36;76.78;99316.97;5018983;28;20081;-48
2023/11/20 01:43:39;;;;;;;6.70;1.25;;;;;;;9.32;76.84;99315.28;5017220;28;20046;-45
2023/11/20 01:46:11;;;;;;;13.25;1.42;;;;;;;9.24;77.04;99308.47;5016564;28;20132;-49
2023/11/20 01:48:39;;;;;;;7.45;1.55;;;;;;;9.22;76.75;99299.84;5017433;28;20071;-43
2023/11/20 01:51:06;;;;;;;9.13;1.38;;;;;;;9.17;76.41;99304.22;5020824;28;20124;-48
2023/11/20 01:53:35;;;;;;;8.80;1.17;;;;;;;9.15;76.72;99307.69;5020674;28;20073;-49
2023/11/20 01:56:03;;;;;;;7.80;2.03;;;;;;;9.11;77.03;99306.84;5017433;28;20096;-51
2023/11/20 01:58:30;;;;;;;11.35;1.02;;;;;;;9.08;77.42;99306.88;5017885;28;20046;-48
2023/11/20 02:00:57;;;;;;;0.90;0.55;;;;;;;9.02;77.17;99306.94;5017123;28;20530;-48
2023/11/20 02:03:25;;;;;;;9.43;2.05;;;;;;;9.05;76.70;99301.75;5020923;28;20045;-51
2023/11/20 02:05:51;;;;;;;10.77;1.02;;;;;;;9.03;76.34;99299.19;5019328;28;20050;-49
2023/11/20 02:08:18;;;;;;;8.45;1.60;;;;;;;9.01;77.17;99298.31;5018298;28;20088;-44
2023/11/20 02:10:45;;;;;;;9.70;1.30;;;;;;;9.00;76.62;99299.19;5016726;28;20064;-47
2023/11/20 02:13:12;;;;;;;7.35;1.10;;;;;;;8.96;77.11;99302.69;5017472;28;20605;-45
2023/11/20 02:15:39;;;;;;;8.38;1.35;;;;;;;8.95;77.09;99300.97;5016089;28;20131;-46
2023/11/20 02:18:29;;;;;;;6.47;1.15;;;;;;;8.89;76.52;99303.59;5021203;28;20440;-50
2023/11/20 02:20:57;;;;;;;10.95;1.25;;;;;;;8.87;77.09;99288.09;5022733;28;20054;-49
2023/11/20 02:23:23;;;;;;;9.50;2.58;;;;;;;8.83;77.11;99286.41;5025376;28;20042;-45
2023/11/20 02:26:02;;;;;;;7.45;1.13;;;;;;;8.79;77.14;99279.56;5022979;28;20049;-48
2023/11/20 02:28:38;;;;;;;7.15;1.17;;;;;;;8.72;76.64;99277.03;5023598;28;20456;-49
2023/11/20 02:31:05;;;;;;;7.68;1.27;;;;;;;8.68;77.09;99275.34;5024012;28;20046;-52
2023/11/20 02:33:36;;;;;;;13.10;1.48;;;;;;;8.63;76.90;99274.53;5024317;28;20467;-45
2023/11/20 02:36:04;;;;;;;8.52;1.30;;;;;;;8.61;77.15;99265.91;5022249;28;20054;-51
2023/11/20 02:38:31;;;;;;;5.32;0.93;;;;;;;8.58;76.63;99265.97;5022244;28;20056;-49
2023/11/20 02:40:58;;;;;;;13.73;1.70;;;;;;;8.55;77.00;99277.13;5024076;28;20049;-49
2023/11/20 02:43:26;;;;;;;6.53;1.05;;;;;;;8.52;77.57;99281.44;5016456;28;20057;-50
2023/11/20 02:45:55;;;;;;;5.90;1.05;;;;;;;8.49;76.88;99275.41;5021985;28;20042;-51
2023/11/20 02:48:23;;;;;;;9.35;2.05;;;;;;;8.46;77.11;99278.06;5025772;28;20042;-45
2023/11/20 02:50:49;;;;;;;7.00;1.15;;;;;;;8.44;77.32;99279.78;5024887;28;20140;-47
2023/11/20 02:53:16;;;;;;;7.22;1.27;;;;;;;8.41;77.35;99287.53;5024310;28;20054;-51
2023/11/20 02:55:43;;;;;;;13.45;2.28;;;;;;;8.38;76.85;99285.00;5029450;28;20056;-44
2023/11/20 02:58:09;;;;;;;14.95;1.70;;;;;;;8.36;77.09;99278.97;5018131;28;20053;-51
2023/11/20 03:00:38;;;;;;;8.10;1.50;;;;;;;8.33;76.81;99282.44;5028791;28;20464;-46
2023/11/20 03:03:06;;;;;;;10.27;1.48;;;;;;;8.32;76.67;99285.00;5021625;28;20072;-44
2023/11/20 03:05:34;;;;;;;13.55;1.77;;;;;;;8.30;77.05;99279.84;5023366;28;20049;-47
2023/11/20 03:08:01;;;;;;;8.27;2.17;;;;;;;8.27;76.79;99286.78;5023835;28;20515;-49
2023/11/20 03:10:28;;;;;;;8.02;0.95;;;;;;;8.26;77.38;99285.91;5019977;28;20049;-47
2023/11/20 03:12:54;;;;;;;11.73;1.70;;;;;;;8.28;77.36;99283.31;5018163;28;20492;-48
2023/11/20 03:15:21;;;;;;;8.85;1.10;;;;;;;8.29;77.60;99274.69;5025914;28;20052;-46
2023/11/20 03:17:49;;;;;;;12.27;1.88;;;;;;;8.30;77.15;99277.28;5020984;28;20073;-49
2023/11/20 03:20:16;;;;;;;9.77;1.10;;;;;;;8.32;77.26;99274.69;5022210;28;20050;-47
2023/11/20 03:22:43;;;;;;;12.32;1.02;;;;;;;8.32;76.85;99266.94;5022611;28;20038;-46
2023/11/20 03:25:09;;;;;;;6.57;0.70;;;;;;;8.34;77.56;99272.94;5020420;28;20052;-48
2023/11/20 03:27:36;;;;;;;3.60;1.00;;;;;;;8.34;76.99;99272.94;5024687;28;20049;-53
2023/11/20 03:30:04;;;;;;;9.90;1.73;;;;;;;8.33;76.83;99268.66;5022956;28;20084;-44
2023/11/20 03:32:31;;;;;;;6.43;1.10;;;;;;;8.31;77.30;99278.16;5022513;28;20550;-45
2023/11/20 03:34:58;;;;;;;7.00;1.10;;;;;;;8.30;76.47;99276.41;5024201;28;20042;-49
2023/11/20 03:37:24;;;;;;;11.88;2.25;;;;;;;8.31;76.74;99280.72;5024238;28;20046;-43
2023/11/20 03:39:51;;;;;;;5.47;1.67;;;;;;;8.34;76.60;99272.94;5022650;28;20046;-49
2023/11/20 03:42:18;;;;;;;10.77;1.42;;;;;;;8.35;76.53;99269.53;5025091;28;20353;-48
2023/11/20 03:44:44;;;;;;;13.73;1.25;;;;;;;8.37;77.51;99272.94;5026950;28;20064;-46
2023/11/20 03:47:11;;;;;;;4.53;1.23;;;;;;;8.37;76.81;99267.75;5021733;28;20502;-48
2023/11/20 03:49:38;;;;;;;11.10;1.50;;;;;;;8.39;76.71;99268.63;5026836;28;20506;-48
2023/11/20 03:52:05;;;;;;;7.70;1.38;;;;;;;8.41;76.48;99268.63;5019225;28;20491;-48
2023/11/20 03:54:33;;;;;;;9.68;1.58;;;;;;;8.42;76.84;99271.19;5020719;28;20053;-47
2023/11/20 03:57:00;;;;;;;11.50;1.80;;;;;;;8.42;76.72;99260.88;5019513;28;20135;-53
2023/11/20 03:59:26;;;;;;;10.68;2.38;;;;;;;8.43;76.44;99262.59;5021652;28;20045;-46
2023/11/20 04:01:53;;;;;;;8.13;1.35;;;;;;;8.44;76.76;99259.13;5019715;28;20518;-44
2023/11/20 04:04:20;;;;;;;7.47;2.00;;;;;;;8.45;76.62;99250.50;5018440;28;20507;-52
2023/11/20 04:06:46;;;;;;;9.32;1.48;;;;;;;8.44;76.61;99259.13;5019716;28;20052;-51
2023/11/20 04:09:13;;;;;;;8.88;1.45;;;;;;;8.44;76.63;99258.28;5019882;28;20067;-44
2023/11/20 04:11:40;;;;;;;5.95;1.20;;;;;;;8.45;76.92;99263.41;5017077;28;20046;-44
2023/11/20 04:14:07;;;;;;;18.33;1.83;;;;;;;8.46;76.67;99267.72;5024169;28;20052;-47
2023/11/20 04:16:33;;;;;;;7.57;1.15;;;;;;;8.48;77.00;99259.97;5019985;28;20045;-46
2023/11/20 04:19:01;;;;;;;12.07;2.08;;;;;;;8.49;76.29;99262.53;5024533;28;20045;-53
2023/11/20 04:21:30;;;;;;;7.88;1.42;;;;;;;8.51;76.52;99252.19;5021534;28;20052;-50
2023/11/20 04:23:58;;;;;;;9.52;1.33;;;;;;;8.54;77.05;99256.53;5023931;28;20487;-47
2023/11/20 04:26:25;;;;;;;16.77;1.35;;;;;;;8.56;76.92;99262.53;5018174;28;20518;-47
2023/11/20 04:28:51;;;;;;;9.95;0.93;;;;;;;8.57;77.08;99253.91;5022147;28;20045;-46
2023/11/20 04:31:18;;;;;;;6.80;1.40;;;;;;;8.57;76.88;99251.31;5016774;28;20053;-48
2023/11/20 04:33:45;;;;;;;11.32;2.38;;;;;;;8.58;76.56;99250.47;5022489;28;20049;-48
2023/11/20 04:36:11;;;;;;;7.40;1.48;;;;;;;8.59;76.91;99247.03;5018798;28;20045;-46
2023/11/20 04:38:38;;;;;;;5.13;1.30;;;;;;;8.60;76.60;99246.13;5020691;28;20049;-48
2023/11/20 04:41:05;;;;;;;5.30;1.10;;;;;;;8.60;76.47;99240.97;5020066;28;20060;-45
2023/11/20 04:43:32;;;;;;;9.80;1.92;;;;;;;8.61;76.55;99240.09;5022103;28;20807;-45
2023/11/20 04:45:59;;;;;;;12.93;1.92;;;;;;;8.62;76.39;99247.00;5021337;28;20045;-44
2023/11/20 04:48:25;;;;;;;11.27;1.45;;;;;;;8.63;77.15;99233.22;5023238;28;20136;-44
2023/11/20 04:50:52;;;;;;;7.90;1.27;;;;;;;8.64;76.66;99240.09;5018987;28;20049;-48
2023/11/20 04:53:21;;;;;;;10.65;1.27;;;;;;;8.64;76.90;99242.66;5022298;28;20049;-50
2023/11/20 04:55:47;;;;;;;5.65;1.10;;;;;;;8.67;76.80;99239.19;5021609;28;20049;-49
2023/11/20 04:58:20;;;;;;;7.88;1.42;;;;;;;8.67;76.47;99234.91;5016203;28;20057;-47
2023/11/20 05:00:48;;;;;;;11.77;1.35;;;;;;;8.67;76.85;99245.22;5025011;28;20434;-45
2023/11/20 05:03:15;;;;;;;12.02;1.48;;;;;;;8.70;76.69;99249.50;5018256;28;20557;-47
2023/11/20 05:05:42;;;;;;;9.57;1.55;;;;;;;8.70;76.87;99245.22;5020332;28;20505;-48
2023/11/20 05:08:10;;;;;;;8.93;1.00;;;;;;;8.72;77.02;99242.63;5020476;28;20049;-49
2023/11/20 05:10:36;;;;;;;6.55;1.35;;;;;;;8.73;76.80;99242.59;5024401;28;20046;-46
2023/11/20 05:13:03;;;;;;;6.15;1.55;;;;;;;8.73;77.51;99245.19;5023510;28;20407;-48
2023/11/20 05:15:30;;;;;;;10.82;1.67;;;;;;;8.74;76.91;99236.56;5021390;28;20459;-46
2023/11/20 05:17:56;;;;;;;6.35;1.55;;;;;;;8.73;77.40;99234.00;5023966;28;20049;-43
2023/11/20 05:20:23;;;;;;;11.60;1.10;;;;;;;8.75;77.10;99232.28;5021835;28;20579;-42
2023/11/20 05:22:52;;;;;;;10.52;1.95;;;;;;;8.73;77.34;99224.53;5022607;28;20132;-47
2023/11/20 05:25:18;;;;;;;9.63;1.35;;;;;;;8.73;77.14;99208.19;5023067;28;20041;-51
2023/11/20 05:27:45;;;;;;;8.23;2.08;;;;;;;8.72;77.39;99212.47;5023569;28;20061;-49
2023/11/20 05:30:12;;;;;;;10.27;2.55;;;;;;;8.71;77.71;99200.44;5022993;28;20106;-48
2023/11/20 05:32:39;;;;;;;6.88;0.70;;;;;;;8.68;77.85;99200.47;5030275;28;20041;-47
2023/11/20 05:35:06;;;;;;;13.27;1.88;;;;;;;8.68;78.07;99195.31;5022766;28;20388;-49
2023/11/20 05:37:33;;;;;;;12.63;2.35;;;;;;;8.65;77.67;99200.47;5019757;28;20056;-49
2023/11/20 05:39:59;;;;;;;8.65;1.38;;;;;;;8.62;76.88;99208.28;5019523;28;20141;-47
2023/11/20 05:42:26;;;;;;;11.02;1.33;;;;;;;8.58;77.88;99209.19;5014055;28;20051;-47
2023/11/20 05:44:53;;;;;;;12.95;2.33;;;;;;;8.54;77.62;99208.31;5018896;28;20049;-51
2023/11/20 05:47:20;;;;;;;7.47;1.10;;;;;;;8.49;77.43;99192.84;5020102;28;20059;-49
2023/11/20 05:49:47;;;;;;;12.63;1.98;;;;;;;8.45;78.05;99198.88;5019197;28;20521;-43
2023/11/20 05:52:13;;;;;;;9.57;1.60;;;;;;;8.44;78.15;99204.94;5019102;28;20072;-53
2023/11/20 05:54:40;;;;;;;7.75;1.05;;;;;;;8.43;78.19;99200.66;5021578;28;20062;-46
2023/11/20 05:57:07;;;;;;;9.75;1.02;;;;;;;8.43;77.65;99199.78;5026104;28;20136;-49
2023/11/20 05:59:34;;;;;;;9.88;1.50;;;;;;;8.42;78.30;99198.94;5022872;28;20045;-46
2023/11/20 06:02:00;;;;;;;9.25;1.55;;;;;;;8.43;78.69;99192.91;5021487;28;20056;-45
2023/11/20 06:04:27;;;;;;;8.93;1.45;;;;;;;8.43;78.37;99195.47;5027456;28;20056;-49
2023/11/20 06:06:54;;;;;;;12.05;1.55;;;;;;;8.43;78.14;99190.31;5022871;28;20136;-47
2023/11/20 06:09:21;;;;;;;7.07;1.33;;;;;;;8.43;78.71;99187.75;5027247;28;20053;-50
2023/11/20 06:11:49;;;;;;;11.15;1.13;;;;;;;8.44;78.32;99192.03;5021577;28;20068;-44
2023/11/20 06:14:16;;;;;;;9.77;1.70;;;;;;;8.44;78.13;99194.59;5025488;28;20128;-51
2023/11/20 06:16:43;;;;;;;8.07;1.60;;;;;;;8.44;78.33;99192.03;5020659;28;20050;-46
2023/11/20 06:19:10;;;;;;;4.95;0.80;;;;;;;8.43;78.45;99190.31;5022427;28;20141;-54
2023/11/20 06:21:45;;;;;;;6.28;1.15;;;;;;;8.42;78.62;99187.75;5031049;28;20049;-51
2023/11/20 06:24:12;;;;;;;12.07;1.45;;;;;;;8.40;78.30;99194.63;5023229;28;20092;-46
2023/11/20 06:26:40;;;;;;;10.82;1.25;;;;;;;8.37;78.97;99185.19;5026658;28;20495;-47
2023/11/20 06:29:07;;;;;;;5.30;1.30;;;;;;;8.33;78.62;99183.50;5022642;28;20050;-50
2023/11/20 06:31:34;;;;;;;7.70;1.27;;;;;;;8.29;79.14;99185.28;5024790;28;20045;-43
2023/11/20 06:34:01;;;;;;;8.00;0.90;;;;;;;8.26;78.21;99197.31;5023476;28;20061;-49
2023/11/20 06:36:27;;;;;;;6.72;1.77;;;;;;;8.23;79.02;99209.38;5019335;28;20582;-49
2023/11/20 06:38:54;;;;;;;9.27;0.82;;;;;;;8.21;78.28;99205.94;5021007;28;20049;-52
2023/11/20 06:41:22;;;;;;;7.47;0.90;;;;;;;8.18;78.41;99200.81;5016286;28;20052;-51
2023/11/20 06:43:49;;;;;;;10.23;1.25;;;;;;;8.18;79.07;99199.97;5021806;28;20087;-48
2023/11/20 06:46:18;;;;;;;8.07;0.65;;;;;;;8.15;78.10;99200.84;5030511;28;20145;-48
2023/11/20 06:48:45;;;;;;;5.88;1.08;;;;;;;8.12;78.18;99206.03;5045297;28;20776;-48
2023/11/20 06:51:13;;;;;;;9.07;1.17;;;;;;;8.09;78.28;99200.88;5046292;28;20479;-42
2023/11/20 06:53:41;;;;;;;6.78;1.63;;;;;;;8.08;78.33;99206.91;5046011;28;20049;-44
2023/11/20 06:56:16;;;;;;;12.45;1.75;;;;;;;8.06;78.62;99212.06;5043378;28;20423;-47
2023/11/20 06:58:43;;;;;;;9.82;1.25;;;;;;;8.08;78.62;99214.66;5045939;28;20460;-48
2023/11/20 07:01:09;;;;;;;8.73;1.52;;;;;;;8.09;78.63;99213.78;5046348;28;20052;-48
2023/11/20 07:03:36;;;;;;;11.73;1.85;;;;;;;8.09;79.46;99211.19;5041797;28;20056;-50
2023/11/20 07:06:03;;;;;;;7.38;1.42;;;;;;;8.13;78.93;99218.03;5046616;28;20045;-52
2023/11/20 07:08:30;;;;;;;14.13;0.93;;;;;;;8.16;79.15;99212.88;5048844;28;20044;-45
2023/11/20 07:10:59;;;;;;;10.98;1.73;;;;;;;8.20;79.32;99219.72;5046444;28;20057;-47
2023/11/20 07:13:26;;;;;;;6.50;1.35;;;;;;;8.22;78.39;99215.41;5043837;28;20103;-46
2023/11/20 07:15:52;;;;;;;6.10;1.33;;;;;;;8.23;78.83;99204.22;5040379;28;20071;-50
2023/11/20 07:18:19;;;;;;;15.25;1.33;;;;;;;8.26;78.92;99217.97;5043574;28;20068;-51
2023/11/20 07:20:46;;;;;;;10.65;1.20;;;;;;;8.27;78.71;99219.69;5039621;28;20071;-48
2023/11/20 07:23:13;;;;;;;7.82;1.92;;;;;;;8.30;78.78;99227.38;5042669;28;20045;-53
2023/11/20 07:25:41;;;;;;;6.75;1.30;;;;;;;8.30;79.11;99217.94;5051166;28;20045;-46
2023/11/20 07:28:11;;;;;;;8.07;1.17;;;;;;;8.33;78.81;99224.78;5041213;28;20045;-50
2023/11/20 07:30:37;;;;;;;12.65;1.02;;;;;;;8.35;78.71;99223.06;5045721;28;20052;-45
2023/11/20 07:33:04;;;;;;;9.63;1.00;;;;;;;8.36;79.00;99229.94;5047166;28;20048;-48
2023/11/20 07:35:32;;;;;;;10.98;1.67;;;;;;;8.38;78.71;99233.38;5041409;28;20055;-47
2023/11/20 07:38:02;;;;;;;13.30;1.73;;;;;;;8.39;78.51;99240.25;5039917;28;20049;-48
2023/11/20 07:40:29;;;;;;;15.02;1.30;;;;;;;8.40;78.83;99241.94;5042546;28;20151;-50
2023/11/20 07:42:56;;;;;;;7.45;1.25;;;;;;;8.42;79.15;99240.22;5034837;28;20267;-51
2023/11/20 07:45:23;;;;;;;9.52;1.48;;;;;;;8.45;79.23;99247.09;5033677;28;20480;-46
2023/11/20 07:47:50;;;;;;;10.40;2.25;;;;;;;8.45;78.77;99245.34;5038749;28;20136;-47
2023/11/20 07:50:17;;;;;;;11.07;1.52;;;;;;;8.47;78.92;99253.06;5031606;28;20104;-44
2023/11/20 07:52:45;;;;;;;8.65;1.40;;;;;;;8.47;79.09;99253.94;5033613;28;20566;-46
2023/11/20 07:55:11;;;;;;;7.38;1.65;;;;;;;8.53;78.84;99257.34;5033193;28;20407;-47
2023/11/20 07:57:41;;;;;;;12.95;1.65;;;;;;;8.57;78.28;99264.22;5035046;28;20037;-49
2023/11/20 08:00:11;;;;;;;6.60;1.30;;;;;;;8.60;78.79;99264.22;5037022;28;20052;-46
2023/11/20 08:02:39;;;;;;;7.95;1.92;;;;;;;8.64;78.96;99270.22;5032013;28;20461;-49
2023/11/20 08:05:08;;;;;;;12.35;2.08;;;;;;;8.69;79.01;99274.50;5034492;28;20065;-48
2023/11/20 08:07:36;;;;;;;10.32;1.25;;;;;;;8.70;78.96;99276.19;5034800;28;20132;-50
2023/11/20 08:10:04;;;;;;;6.45;1.55;;;;;;;8.72;79.16;99279.59;5039517;28;20056;-45
2023/11/20 08:12:33;;;;;;;7.55;0.77;;;;;;;8.74;78.37;99274.44;5033736;28;20072;-48
2023/11/20 08:15:05;;;;;;;9.73;1.27;;;;;;;8.75;78.84;99283.91;5030805;28;20041;-42
2023/11/20 08:17:32;;;;;;;10.20;1.67;;;;;;;8.78;79.05;99278.69;5030552;28;20069;-48
2023/11/20 08:19:59;;;;;;;7.03;1.45;;;;;;;8.80;78.96;99276.09;5030976;28;20163;-47
2023/11/20 08:22:26;;;;;;;8.27;1.63;;;;;;;8.80;78.69;99282.13;5029671;28;20422;-46
2023/11/20 08:24:52;;;;;;;7.38;1.52;;;;;;;8.82;78.99;99289.88;5031085;28;20099;-47
2023/11/20 08:27:19;;;;;;;11.45;1.25;;;;;;;8.82;78.83;99287.28;5035164;28;20159;-45
2023/11/20 08:29:46;;;;;;;10.55;1.27;;;;;;;8.83;78.65;99287.28;5029618;28;20057;-44
2023/11/20 08:32:12;;;;;;;8.98;1.10;;;;;;;8.84;78.82;99283.81;5036683;28;20045;-48
2023/11/20 08:34:39;;;;;;;9.95;1.42;;;;;;;8.85;78.64;99292.44;5031797;28;20183;-48
2023/11/20 08:37:06;;;;;;;5.85;1.45;;;;;;;8.86;78.66;99282.06;5034980;28;20152;-49
2023/11/20 08:39:35;;;;;;;9.85;1.30;;;;;;;8.87;78.77;99272.63;5032879;28;20063;-47
2023/11/20 08:42:03;;;;;;;7.82;1.52;;;;;;;8.88;78.74;99279.47;5037507;28;20045;-44
2023/11/20 08:44:30;;;;;;;10.80;1.77;;;;;;;8.90;78.75;99288.09;5033467;28;20089;-48
2023/11/20 08:46:58;;;;;;;10.25;1.70;;;;;;;8.95;78.59;99291.47;5029468;28;20049;-47
2023/11/20 08:49:26;;;;;;;23.80;8.70;;;;;;;9.16;79.15;99296.47;5036817;28;20052;-46
2023/11/20 08:51:53;;;;;;;15.70;7.25;;;;;;;9.48;79.29;99296.16;5040413;28;20410;-43
2023/11/20 08:54:30;;;;;;;17.83;6.78;;;;;;;9.86;79.92;99311.28;5042190;28;20132;-44
2023/11/20 08:56:57;;;;;;;16.05;4.55;;;;;;;10.27;80.06;99309.88;5046994;28;20057;-47
2023/11/20 08:59:24;;;;;;;12.57;3.15;;;;;;;10.50;80.00;99303.56;5037101;28;20060;-44
2023/11/20 09:01:50;;;;;;;15.80;4.05;;;;;;;10.52;79.25;99304.44;5041403;28;20056;-50
2023/11/20 09:04:17;;;;;;;19.75;4.35;;;;;;;10.47;77.87;99311.38;5032329;28;20048;-44
2023/11/20 09:06:44;;;;;;;12.77;2.67;;;;;;;10.42;78.18;99310.56;5042366;28;20041;-47
2023/11/20 09:09:10;;;;;;;14.68;2.80;;;;;;;10.37;77.63;99314.97;5045256;28;20045;-49
2023/11/20 09:11:38;;;;;;;16.83;4.20;;;;;;;10.33;78.67;99311.53;5044304;28;20142;-42
2023/11/20 09:14:05;;;;;;;16.30;5.88;;;;;;;10.31;77.84;99310.72;5044572;28;20045;-52
2023/11/20 09:16:31;;;;;;;14.32;2.95;;;;;;;10.36;78.17;99321.00;5041689;28;20076;-48
2023/11/20 09:18:58;;;;;;;16.58;3.67;;;;;;;10.36;77.95;99321.00;5035369;28;20554;-45
2023/11/20 09:21:26;;;;;;;18.70;3.88;;;;;;;10.34;77.31;99321.00;5037918;28;20139;-49
2023/11/20 09:23:52;;;;;;;17.45;4.45;;;;;;;10.34;78.17;99322.75;5042964;28;20049;-47
2023/11/20 09:26:19;;;;;;;18.73;4.07;;;;;;;10.29;77.42;99321.09;5041343;28;20060;-50
2023/11/20 09:28:46;;;;;;;12.07;2.90;;;;;;;10.27;77.37;99322.84;5036131;28;20053;-45
2023/11/20 09:31:19;;;;;;;12.68;2.25;;;;;;;10.25;78.24;99327.19;5041865;28;20045;-48
2023/11/20 09:33:48;;;;;;;12.32;3.22;;;;;;;10.32;78.10;99329.69;5038421;28;20049;-45
2023/11/20 09:36:16;;;;;;;16.42;1.92;;;;;;;10.42;77.23;99336.47;5041509;28;20053;-43
2023/11/20 09:38:43;;;;;;;17.55;3.28;;;;;;;10.46;77.51;99332.09;5040350;28;20060;-45
2023/11/20 09:41:10;;;;;;;15.05;3.65;;;;;;;10.51;77.24;99341.53;5042547;28;20053;-48
2023/11/20 09:43:37;;;;;;;12.88;2.90;;;;;;;10.59;77.20;99327.63;5045173;28;20049;-47
2023/11/20 09:46:06;;;;;;;7.30;2.90;;;;;;;10.67;77.56;99329.22;5043214;28;20052;-48
2023/11/20 09:48:33;;;;;;;9.52;2.38;;;;;;;10.93;76.78;99327.13;5042189;28;20413;-51
2023/11/20 09:51:01;;;;;;;8.05;1.88;;;;;;;11.02;77.45;99334.72;5043961;28;20053;-50
2023/11/20 09:53:39;;;;;;;12.88;2.45;;;;;;;11.42;77.74;99340.16;5041479;28;20482;-49
2023/11/20 09:56:06;;;;;;;8.50;2.35;;;;;;;12.32;77.39;99343.63;5028641;28;20045;-49
2023/11/20 09:58:34;;;;;;;9.60;1.65;;;;;;;13.44;76.89;99350.56;5045414;28;20060;-49
2023/11/20 10:01:09;;;;;;;9.48;1.73;;;;;;;14.38;75.36;99348.03;5038994;28;20076;-43
2023/11/20 10:03:39;;;;;;;12.15;2.53;;;;;;;15.04;74.04;99349.53;5039969;28;20040;-44
2023/11/20 10:06:10;;;;;;;6.78;1.30;;;;;;;15.88;72.06;99364.13;5042597;28;20044;-49
2023/11/20 10:08:41;;;;;;;8.40;2.20;;;;;;;16.56;71.27;99360.78;5044949;28;20560;-51
2023/11/20 10:11:11;;;;;;;7.53;1.60;;;;;;;17.06;70.05;99361.47;5041031;28;20072;-44
2023/11/20 10:13:38;;;;;;;;;;;;;;;17.39;68.31;99365.38;5034953;28;20578;-52
2023/11/20 10:16:16;;;;;;;12.40;2.75;;;;;;;17.07;67.69;99365.78;5031604;28;19920;-49
2023/11/20 10:18:44;;;;;;;6.68;1.63;;;;;;;16.60;66.99;99367.59;5044169;28;20060;-47
2023/11/20 10:21:12;;;;;;;8.95;1.40;;;;;;;16.29;68.09;99374.00;5042783;28;20076;-55
2023/11/20 10:23:40;;;;;;;4.82;1.65;;;;;;;15.76;66.92;99360.16;5046055;28;20056;-48
2023/11/20 10:26:07;;;;;;;10.90;1.80;;;;;;;15.13;66.08;99348.38;5040842;28;20879;-48
2023/11/20 10:28:42;;;;;;;5.88;1.30;;;;;;;14.68;67.22;99355.81;5043892;28;20118;-45
2023/11/20 10:31:09;;;;;;;9.70;2.05;;;;;;;14.37;67.60;99351.53;5048724;28;20669;-48
2023/11/20 10:33:37;;;;;;;5.63;2.10;;;;;;;14.26;68.08;99364.88;5045127;28;20060;-47
2023/11/20 10:36:20;;;;;;;5.40;1.08;;;;;;;14.07;68.68;99361.94;5045210;28;20051;-49
2023/11/20 10:38:47;;;;;;;6.55;1.15;;;;;;;13.86;69.06;99362.53;5043139;28;20060;-48
2023/11/20 10:41:14;;;;;;;7.65;1.33;;;;;;;13.66;69.18;99372.59;5046697;28;20048;-52
2023/11/20 10:43:40;;;;;;;5.18;1.50;;;;;;;13.47;69.39;99370.44;5045924;28;20502;-52
2023/11/20 10:46:08;;;;;;;6.13;2.05;;;;;;;13.42;69.74;99369.69;5047701;28;20044;-48
2023/11/20 10:48:37;;;;;;;5.97;1.23;;;;;;;13.38;69.44;99366.34;5047630;28;20612;-48
2023/11/20 10:51:07;;;;;;;6.85;1.90;;;;;;;13.40;70.34;99367.13;5042932;28;20057;-51
2023/11/20 10:53:39;;;;;;;5.45;1.17;;;;;;;13.39;69.66;99377.56;5048960;28;20045;-51
2023/11/20 10:56:07;;;;;;;5.85;1.73;;;;;;;13.35;70.35;99377.66;5023633;28;20132;-52
2023/11/20 10:58:34;;;;;;;5.90;1.65;;;;;;;13.28;70.41;99376.13;5048741;28;20128;-47
2023/11/20 11:01:02;;;;;;;7.32;1.73;;;;;;;13.18;70.19;99377.22;5045161;28;20076;-49
2023/11/20 11:03:30;;;;;;;10.27;1.75;;;;;;;13.19;70.53;99382.41;5037164;28;20046;-45
2023/11/20 11:06:04;;;;;;;7.63;1.38;;;;;;;13.21;70.66;99379.75;5045679;28;20049;-46
2023/11/20 11:08:32;;;;;;;6.40;1.08;;;;;;;13.30;70.74;99378.66;5048065;28;20498;-50
2023/11/20 11:11:03;;;;;;;3.05;1.42;;;;;;;13.41;71.17;99376.66;5043494;28;20091;-46
2023/11/20 11:13:34;;;;;;;5.13;1.38;;;;;;;13.39;69.41;99372.38;5043967;28;20083;-45
2023/11/20 11:16:07;;;;;;;5.65;1.05;;;;;;;13.36;70.04;99381.13;5047604;28;20465;-50
2023/11/20 11:18:36;;;;;;;8.23;1.65;;;;;;;13.23;70.59;99377.97;5043490;28;20064;-51
2023/11/20 11:21:08;;;;;;;6.35;1.83;;;;;;;13.14;69.86;99386.00;5042755;28;20077;-45
2023/11/20 11:29:05;;;;;;;4.50;1.05;;;;;;;13.32;69.79;99371.69;5028044;28;20396;-48
2023/11/20 11:37:11;;;;;;;6.95;1.77;;;;;;;13.51;68.17;99377.28;5059940;27;20407;-49
2023/11/20 11:39:46;;;;;;;6.75;1.23;;;;;;;13.31;68.95;99365.63;4998795;28;20097;-44
2023/11/20 11:42:17;;;;;;;8.68;1.63;;;;;;;13.10;69.18;99373.06;5001278;28;20162;-48
2023/11/20 11:45:09;;;;;;;8.15;2.47;;;;;;;12.94;68.89;99371.72;4999888;28;20046;-50
2023/11/20 11:47:40;;;;;;;2.90;1.00;;;;;;;12.90;69.76;99375.28;5004053;28;20092;-44
2023/11/20 11:50:07;;;;;;;5.90;1.95;;;;;;;12.84;70.37;99371.91;4999125;28;20061;-51